Time;durP1;ratioP1;P1;durP2;ratioP2;P2;SDS_P1;SDS_P2;PMS_P1;PMS_P2;Temp;Humidity;BMP_temperature;BMP_pressure;BME280_temperature;BME280_humidity;BME280_pressure;Samples;Min_cycle;Max_cycle;Signal;HPM_P1;HPM_P2
2022/12/09 00:01:33;;;;;;;90.60;42.13;;;;;;;;;;5008377;28;20048;-85
2022/12/09 00:03:59;;;;;;;89.05;44.83;;;;;;;0.85;100.00;66874.09;5008254;28;20038;-85
2022/12/09 00:06:25;;;;;;;83.60;42.13;;;;;;;;;;5007659;28;20041;-85
2022/12/09 00:08:51;;;;;;;93.47;47.63;;;;;;;0.86;100.00;66874.66;5006597;28;20034;-85
2022/12/09 00:11:17;;;;;;;88.88;43.90;;;;;;;;;;5005487;28;20029;-85
2022/12/09 00:13:46;;;;;;;83.75;41.97;;;;;;;0.87;100.00;66875.78;4987285;28;20069;-85
2022/12/09 00:16:12;;;;;;;92.25;44.85;;;;;;;;;;4990474;28;20068;-85
2022/12/09 00:18:38;;;;;;;88.28;43.00;;;;;;;0.88;100.00;66880.09;5006746;28;20561;-85
2022/12/09 00:21:24;;;;;;;94.82;42.25;;;;;;;0.87;100.00;66878.97;5005563;28;20235;-85
2022/12/09 00:23:50;;;;;;;92.47;43.22;;;;;;;;;;5004971;28;20044;-85
2022/12/09 00:26:16;;;;;;;88.82;40.95;;;;;;;;;;5008907;28;20034;-85
2022/12/09 00:28:41;;;;;;;91.57;42.90;;;;;;;;;;5004578;28;20519;-85
2022/12/09 00:31:07;;;;;;;87.72;42.83;;;;;;;0.86;100.00;66875.22;5007176;28;20050;-85
2022/12/09 00:33:33;;;;;;;90.72;42.20;;;;;;;;;;5009547;28;20045;-85
2022/12/09 00:36:04;;;;;;;96.95;44.38;;;;;;;0.86;100.00;66875.22;4993120;28;20311;-85
2022/12/09 00:38:30;;;;;;;99.28;41.78;;;;;;;0.87;100.00;66878.41;4995116;28;20092;-85
2022/12/09 00:40:55;;;;;;;95.22;43.95;;;;;;;;;;5013523;28;20030;-85
2022/12/09 00:43:20;;;;;;;99.22;44.42;;;;;;;;;;5019286;28;20516;-85
2022/12/09 00:45:46;;;;;;;100.25;46.65;;;;;;;0.89;100.00;66878.03;4990357;28;20682;-86
2022/12/09 00:48:11;;;;;;;104.82;48.25;;;;;;;;;;5008952;28;20553;-85
2022/12/09 00:50:36;;;;;;;101.93;51.17;;;;;;;0.94;100.00;66885.72;5008503;28;20046;-85
2022/12/09 00:53:01;;;;;;;103.32;47.33;;;;;;;;;;5012375;28;20049;-85
2022/12/09 00:55:27;;;;;;;109.32;49.50;;;;;;;0.89;100.00;66878.59;4991511;28;20038;-85
2022/12/09 00:57:52;;;;;;;110.30;47.55;;;;;;;0.92;100.00;66881.41;5025637;28;20532;-85
2022/12/09 01:00:18;;;;;;;118.50;54.45;;;;;;;0.92;100.00;66884.03;5011190;28;20432;-85
2022/12/09 01:02:43;;;;;;;109.93;51.45;;;;;;;0.96;100.00;66885.34;4986509;28;20809;-85
2022/12/09 01:05:08;;;;;;;114.00;51.65;;;;;;;0.94;100.00;66883.09;5006693;28;20042;-86
2022/12/09 01:07:36;;;;;;;113.35;52.47;;;;;;;0.94;100.00;66883.66;5007776;28;20044;-86
2022/12/09 01:10:02;;;;;;;121.93;53.92;;;;;;;0.98;100.00;66882.34;5009863;28;20037;-85
2022/12/09 01:12:28;;;;;;;125.13;55.88;;;;;;;1.00;100.00;66889.84;5008976;28;20042;-86
2022/12/09 01:14:53;;;;;;;122.75;55.95;;;;;;;0.99;100.00;66891.91;5004068;28;20057;-86
2022/12/09 01:17:19;;;;;;;118.05;54.80;;;;;;;1.00;100.00;66890.41;5024044;28;20041;-85
2022/12/09 01:19:45;;;;;;;119.20;53.63;;;;;;;1.01;100.00;66886.31;5007465;28;20045;-85
2022/12/09 01:22:10;;;;;;;121.78;53.40;;;;;;;;;;5011432;28;20128;-85
2022/12/09 01:24:35;;;;;;;118.85;52.58;;;;;;;;;;5002560;28;20038;-85
2022/12/09 01:27:01;;;;;;;117.93;55.25;;;;;;;1.02;100.00;66892.66;4990566;28;20050;-85
2022/12/09 01:29:26;;;;;;;119.90;55.28;;;;;;;1.02;100.00;66894.72;4989330;28;20161;-85
2022/12/09 01:31:53;;;;;;;125.97;55.10;;;;;;;;;;4990704;28;20101;-85
2022/12/09 01:34:18;;;;;;;133.85;57.30;;;;;;;1.06;100.00;66897.16;5004171;28;20390;-85
2022/12/09 01:36:43;;;;;;;125.97;59.70;;;;;;;;;;5008872;28;20049;-85
2022/12/09 01:39:09;;;;;;;134.85;55.92;;;;;;;1.09;100.00;66903.19;5011260;28;20429;-85
2022/12/09 01:41:35;;;;;;;132.00;54.30;;;;;;;1.08;100.00;66899.41;5020977;28;20045;-85
2022/12/09 01:44:20;;;;;;;130.20;56.70;;;;;;;1.09;100.00;66902.59;5011011;28;20034;-85
2022/12/09 01:46:46;;;;;;;123.45;54.70;;;;;;;1.11;100.00;66904.84;5010231;28;20129;-85
2022/12/09 01:49:17;;;;;;;140.27;59.97;;;;;;;1.16;100.00;66907.88;5011351;28;20575;-85
2022/12/09 01:51:46;;;;;;;133.20;60.15;;;;;;;1.14;100.00;66905.59;5010927;28;20042;-85
2022/12/09 01:54:12;;;;;;;142.88;60.97;;;;;;;1.16;100.00;66902.06;5010603;28;20111;-85
2022/12/09 01:56:39;;;;;;;135.13;57.92;;;;;;;1.17;100.00;66908.44;5009740;28;20034;-85
2022/12/09 01:59:08;;;;;;;125.47;53.03;;;;;;;1.16;100.00;66907.88;5001528;28;20041;-85
2022/12/09 02:01:34;;;;;;;133.13;58.05;;;;;;;1.17;100.00;66911.59;5013470;28;20116;-86
2022/12/09 02:04:00;;;;;;;125.97;53.33;;;;;;;;;;5013893;28;20042;-85
2022/12/09 02:06:25;;;;;;;137.30;62.60;;;;;;;1.17;100.00;66908.44;5010969;28;20065;-85
2022/12/09 02:08:51;;;;;;;138.27;58.58;;;;;;;1.19;100.00;66910.69;5003775;28;20058;-85
2022/12/09 02:11:55;;;;;;;138.30;60.75;;;;;;;1.19;100.00;66910.69;4993265;28;20058;-85
2022/12/09 02:14:20;;;;;;;149.45;63.33;;;;;;;;;;5010970;28;20095;-85
2022/12/09 02:17:36;;;;;;;144.00;59.38;;;;;;;1.21;100.00;66913.50;5007337;28;20042;-85
2022/12/09 02:20:12;;;;;;;141.35;63.65;;;;;;;1.20;100.00;66914.41;4963354;28;20042;-85
2022/12/09 02:22:47;;;;;;;134.57;61.13;;;;;;;1.21;100.00;66908.25;5011788;28;20155;-85
2022/12/09 02:25:33;;;;;;;133.23;56.28;;;;;;;;;;5002243;28;20141;-85
2022/12/09 02:28:17;;;;;;;143.73;63.85;;;;;;;;;;4974019;28;20042;-85
2022/12/09 02:30:56;;;;;;;143.80;63.78;;;;;;;1.23;100.00;66910.50;5008757;28;20042;-85
2022/12/09 02:33:34;;;;;;;153.85;65.07;;;;;;;;;;5006361;28;20128;-85
2022/12/09 02:36:04;;;;;;;147.90;69.95;;;;;;;;;;5007317;28;20050;-85
2022/12/09 02:38:31;;;;;;;143.98;56.97;;;;;;;1.24;100.00;66918.94;5024467;28;20044;-85
2022/12/09 02:41:31;;;;;;;149.43;66.55;;;;;;;1.25;100.00;66917.44;5013546;28;20577;-85
2022/12/09 02:44:04;;;;;;;137.02;55.10;;;;;;;1.22;100.00;66917.22;4963497;28;20052;-85
2022/12/09 02:46:31;;;;;;;146.52;64.47;;;;;;;1.21;100.00;66913.50;4998491;28;20397;-85
2022/12/09 02:48:57;;;;;;;146.68;64.13;;;;;;;;;;5011648;28;20038;-85
2022/12/09 02:51:26;;;;;;;140.82;63.47;;;;;;;1.25;100.00;66917.44;5010037;28;20054;-86
2022/12/09 02:53:53;;;;;;;133.80;57.47;;;;;;;;;;4989510;28;20041;-86
2022/12/09 02:56:19;;;;;;;143.75;66.28;;;;;;;;;;5017576;28;20053;-85
2022/12/09 02:58:44;;;;;;;133.80;57.63;;;;;;;1.27;100.00;66919.69;5022034;28;20116;-85
2022/12/09 03:01:45;;;;;;;142.10;64.00;;;;;;;1.26;100.00;66913.88;5020791;28;20225;-85
2022/12/09 03:04:16;;;;;;;154.40;67.53;;;;;;;;;;4958024;28;20050;-86
2022/12/09 03:06:45;;;;;;;147.93;63.30;;;;;;;;;;5007336;28;20405;-85
2022/12/09 03:09:15;;;;;;;;;;;;;;;1.29;100.00;66921.94;5021223;28;20037;-85
2022/12/09 03:11:41;;;;;;;132.20;56.33;;;;;;;1.18;100.00;66910.13;5024085;28;19913;-85
2022/12/09 03:14:18;;;;;;;152.57;66.55;;;;;;;1.23;100.00;66915.19;5027427;28;20782;-86
2022/12/09 03:16:53;;;;;;;142.43;61.72;;;;;;;1.25;100.00;66917.44;5023576;28;20045;-85
2022/12/09 03:19:25;;;;;;;142.45;59.38;;;;;;;;;;5025243;28;20045;-85
2022/12/09 03:21:56;;;;;;;136.65;59.45;;;;;;;1.26;100.00;66918.56;5008814;28;20413;-85
2022/12/09 03:24:23;;;;;;;146.27;59.85;;;;;;;;;;5024466;28;20037;-85
2022/12/09 03:26:51;;;;;;;140.93;64.88;;;;;;;1.29;100.00;66921.94;5014070;28;20052;-85
2022/12/09 03:29:22;;;;;;;156.82;62.00;;;;;;;1.29;100.00;66922.47;4988385;28;20413;-85
2022/12/09 03:31:49;;;;;;;147.23;59.38;;;;;;;1.29;100.00;66916.69;4999462;28;20052;-85
2022/12/09 03:34:16;;;;;;;152.90;67.45;;;;;;;;;;4981638;28;20528;-85
2022/12/09 03:36:43;;;;;;;160.63;71.53;;;;;;;;;;5005507;28;20053;-85
2022/12/09 03:39:12;;;;;;;152.80;68.70;;;;;;;1.33;100.00;66926.44;5006715;28;20061;-85
2022/12/09 03:41:45;;;;;;;147.60;61.72;;;;;;;1.29;100.00;66922.47;5003570;28;20593;-85
2022/12/09 03:44:12;;;;;;;155.57;72.22;;;;;;;;;;5007412;28;20525;-85
2022/12/09 03:46:38;;;;;;;149.38;63.85;;;;;;;1.30;100.00;66923.06;4989082;28;20121;-85
2022/12/09 03:49:04;;;;;;;149.52;67.00;;;;;;;1.29;100.00;66922.47;5007587;28;20169;-85
2022/12/09 03:51:32;;;;;;;143.02;62.28;;;;;;;;;;4996826;28;20041;-85
2022/12/09 03:54:00;;;;;;;144.57;66.07;;;;;;;;;;5007828;28;20099;-85
2022/12/09 03:56:33;;;;;;;151.60;63.30;;;;;;;1.31;100.00;66918.94;5005540;28;20046;-85
2022/12/09 03:59:01;;;;;;;149.15;67.47;;;;;;;1.32;100.00;66928.50;5007615;28;20042;-84
2022/12/09 04:01:28;;;;;;;141.25;63.67;;;;;;;1.33;100.00;66927.00;4989326;28;20468;-85
2022/12/09 04:03:55;;;;;;;121.30;58.50;;;;;;;1.32;100.00;66920.63;4987811;28;20128;-85
2022/12/09 04:06:21;;;;;;;115.97;49.20;;;;;;;1.30;100.00;66925.69;5010852;28;20042;-85
2022/12/09 04:08:46;;;;;;;114.35;53.83;;;;;;;1.33;100.00;66926.44;5006440;28;20049;-85
2022/12/09 04:11:11;;;;;;;108.40;54.25;;;;;;;1.31;100.00;66924.19;5008101;28;20567;-85
2022/12/09 04:13:37;;;;;;;106.13;50.30;;;;;;;1.34;100.00;66927.56;5020391;28;20048;-85
2022/12/09 04:16:02;;;;;;;113.00;50.05;;;;;;;;;;5031085;28;20160;-85
2022/12/09 04:18:27;;;;;;;110.40;53.38;;;;;;;1.38;100.00;66932.06;5030440;28;20038;-85
2022/12/09 04:20:53;;;;;;;116.60;53.92;;;;;;;;;;5001102;28;20046;-85
2022/12/09 04:23:18;;;;;;;111.85;52.55;;;;;;;1.38;100.00;66932.06;5006187;28;20111;-85
2022/12/09 04:25:43;;;;;;;110.82;49.38;;;;;;;1.39;100.00;66933.19;5009773;28;20033;-86
2022/12/09 04:28:09;;;;;;;105.10;50.38;;;;;;;1.43;100.00;66937.69;5010612;28;20497;-85
2022/12/09 04:30:34;;;;;;;108.88;52.08;;;;;;;;;;5010711;28;20414;-85
2022/12/09 04:32:59;;;;;;;111.40;53.72;;;;;;;1.47;100.00;66941.66;5019390;28;20048;-85
2022/12/09 04:35:26;;;;;;;107.25;53.97;;;;;;;1.45;100.00;66939.94;5010016;28;20033;-85
2022/12/09 04:37:51;;;;;;;110.60;48.45;;;;;;;1.44;100.00;66941.44;5006712;28;20045;-85
2022/12/09 04:40:17;;;;;;;108.18;51.28;;;;;;;1.41;100.00;66930.22;5010426;28;20045;-85
2022/12/09 04:42:42;;;;;;;109.70;51.45;;;;;;;1.40;100.00;66928.50;5006973;28;20137;-85
2022/12/09 04:45:08;;;;;;;106.32;50.05;;;;;;;;;;5010480;28;20084;-85
2022/12/09 04:47:33;;;;;;;97.45;46.05;;;;;;;;;;5007887;28;20045;-85
2022/12/09 04:49:58;;;;;;;92.15;49.03;;;;;;;1.43;100.00;66937.69;5011282;28;20493;-86
2022/12/09 04:52:23;;;;;;;96.47;48.45;;;;;;;;;;5020645;28;20038;-85
2022/12/09 04:54:49;;;;;;;87.40;40.72;;;;;;;1.40;100.00;66934.31;5001531;28;20082;-85
2022/12/09 04:57:15;;;;;;;85.97;47.15;;;;;;;1.40;100.00;66933.75;4992037;28;20109;-84
2022/12/09 04:59:40;;;;;;;84.15;39.40;;;;;;;;;;5007129;28;20121;-85
2022/12/09 05:02:06;;;;;;;80.53;40.33;;;;;;;1.42;100.00;66936.00;5012589;28;20048;-83
2022/12/09 05:04:31;;;;;;;80.22;34.47;;;;;;;;;;5004472;28;20117;-83
2022/12/09 05:06:56;;;;;;;76.97;38.47;;;;;;;1.38;100.00;66934.69;5011722;28;20172;-83
2022/12/09 05:09:22;;;;;;;74.82;42.72;;;;;;;1.42;100.00;66941.81;5015646;28;20037;-83
2022/12/09 05:11:47;;;;;;;79.40;38.80;;;;;;;;;;5016993;28;20041;-83
2022/12/09 05:14:13;;;;;;;83.40;40.63;;;;;;;1.47;100.00;66936.41;5019885;28;20041;-83
2022/12/09 05:16:38;;;;;;;75.35;40.13;;;;;;;1.48;100.00;66938.06;5004427;28;20041;-83
2022/12/09 05:19:04;;;;;;;76.88;40.40;;;;;;;;;;5010815;28;20046;-83
2022/12/09 05:21:29;;;;;;;71.90;38.35;;;;;;;1.50;100.00;66948.19;5019881;28;20074;-83
2022/12/09 05:23:54;;;;;;;67.40;33.33;;;;;;;;;;5018168;28;20442;-84
2022/12/09 05:26:21;;;;;;;69.95;35.47;;;;;;;1.44;100.00;66933.59;5022021;28;20046;-83
2022/12/09 05:28:47;;;;;;;70.22;35.80;;;;;;;1.50;100.00;66945.03;5033530;28;20086;-84
2022/12/09 05:31:15;;;;;;;70.07;39.75;;;;;;;1.53;100.00;66948.97;5020289;28;20557;-83
2022/12/09 05:33:41;;;;;;;76.45;40.35;;;;;;;1.52;100.00;66950.44;5018864;28;20042;-85
2022/12/09 05:36:10;;;;;;;70.97;39.22;;;;;;;;;;5016540;28;20057;-84
2022/12/09 05:38:35;;;;;;;71.35;37.25;;;;;;;;;;5029027;28;20037;-82
2022/12/09 05:41:00;;;;;;;68.28;37.83;;;;;;;1.51;100.00;66949.31;5033684;28;20052;-82
2022/12/09 05:43:26;;;;;;;65.10;38.78;;;;;;;;;;5014938;28;20069;-82
2022/12/09 05:45:51;;;;;;;66.35;34.55;;;;;;;1.54;100.00;66949.50;5000798;28;20054;-82
2022/12/09 05:48:16;;;;;;;65.00;38.08;;;;;;;1.55;100.00;66951.22;5011643;28;20046;-81
2022/12/09 05:50:42;;;;;;;66.38;35.58;;;;;;;1.57;100.00;66947.66;4995918;28;20038;-82
2022/12/09 05:53:07;;;;;;;69.28;39.83;;;;;;;1.55;100.00;66943.34;5014484;28;20049;-82
2022/12/09 05:55:32;;;;;;;63.22;35.85;;;;;;;;;;5006044;28;20045;-82
2022/12/09 05:57:58;;;;;;;66.32;35.88;;;;;;;1.53;100.00;66941.09;5010522;28;20046;-82
2022/12/09 06:00:23;;;;;;;69.22;41.35;;;;;;;1.54;100.00;66944.81;5007660;28;20049;-81
2022/12/09 06:02:49;;;;;;;64.57;37.67;;;;;;;1.53;100.00;66948.97;5001549;28;20049;-81
2022/12/09 06:05:14;;;;;;;67.57;38.85;;;;;;;;;;4997112;28;20030;-81
2022/12/09 06:07:39;;;;;;;68.60;34.30;;;;;;;1.49;100.00;66939.19;5004075;28;20034;-81
2022/12/09 06:10:05;;;;;;;74.45;40.60;;;;;;;1.54;100.00;66952.69;5009881;28;20045;-83
2022/12/09 06:12:31;;;;;;;77.60;42.70;;;;;;;;;;5003915;28;20416;-83
2022/12/09 06:14:56;;;;;;;73.82;43.10;;;;;;;1.56;100.00;66951.78;5005050;28;20046;-83
2022/12/09 06:17:21;;;;;;;76.30;39.92;;;;;;;;;;5009133;28;20037;-83
2022/12/09 06:19:46;;;;;;;79.78;43.90;;;;;;;;;;5006955;28;20052;-83
2022/12/09 06:22:12;;;;;;;78.88;43.78;;;;;;;;;;5005607;28;20045;-84
2022/12/09 06:24:37;;;;;;;76.47;41.17;;;;;;;1.60;100.00;66950.47;5005607;28;20041;-83
2022/12/09 06:27:03;;;;;;;79.90;42.70;;;;;;;1.59;100.00;66960.41;5010416;28;20124;-86
2022/12/09 06:29:28;;;;;;;75.82;43.40;;;;;;;;;;5006203;28;20034;-86
2022/12/09 06:31:53;;;;;;;62.95;36.25;;;;;;;1.49;100.00;66943.88;5007367;28;20045;-83
2022/12/09 06:34:19;;;;;;;62.30;37.33;;;;;;;1.44;100.00;66944.06;5007637;28;20038;-84
2022/12/09 06:36:44;;;;;;;60.53;33.35;;;;;;;1.49;100.00;66943.88;5002445;28;20425;-84
2022/12/09 06:39:10;;;;;;;57.97;34.75;;;;;;;1.50;100.00;66945.56;5014736;28;20038;-83
2022/12/09 06:41:36;;;;;;;61.50;33.40;;;;;;;1.53;100.00;66948.97;5005936;28;20128;-83
2022/12/09 06:44:01;;;;;;;62.88;36.58;;;;;;;1.56;100.00;66951.78;5013514;28;20054;-83
2022/12/09 06:46:27;;;;;;;60.25;34.75;;;;;;;;;;5006013;28;20038;-83
2022/12/09 06:48:53;;;;;;;58.58;36.05;;;;;;;1.54;100.00;66950.06;5009712;28;20457;-83
2022/12/09 06:51:19;;;;;;;58.90;32.95;;;;;;;;;;5018115;28;20056;-83
2022/12/09 06:53:45;;;;;;;66.80;37.70;;;;;;;1.61;100.00;66956.81;4983715;28;20522;-84
2022/12/09 06:56:12;;;;;;;66.05;39.50;;;;;;;1.58;100.00;66954.00;4987551;28;20619;-83
2022/12/09 06:58:37;;;;;;;60.55;35.40;;;;;;;;;;4990402;28;20049;-83
2022/12/09 07:01:12;;;;;;;66.53;38.45;;;;;;;1.60;100.00;66950.47;5010112;28;20063;-83
2022/12/09 07:03:38;;;;;;;68.60;38.20;;;;;;;1.58;100.00;66959.25;5008270;28;20117;-82
2022/12/09 07:06:03;;;;;;;71.47;43.10;;;;;;;1.55;100.00;66951.22;5014520;28;20132;-82
2022/12/09 07:08:29;;;;;;;72.47;44.28;;;;;;;;;;5007195;28;20120;-82
2022/12/09 07:10:54;;;;;;;75.28;44.60;;;;;;;1.52;100.00;66947.81;5007466;28;20411;-83
2022/12/09 07:13:19;;;;;;;76.68;45.22;;;;;;;1.49;100.00;66946.50;4999375;28;20517;-82
2022/12/09 07:15:44;;;;;;;80.05;47.30;;;;;;;;;;5003571;28;20042;-83
2022/12/09 07:18:10;;;;;;;81.55;46.58;;;;;;;1.39;100.00;66933.19;4999108;28;20065;-82
2022/12/09 07:20:35;;;;;;;80.35;45.47;;;;;;;1.45;100.00;66939.94;5008956;28;20042;-86
2022/12/09 07:23:00;;;;;;;77.80;42.17;;;;;;;;;;5005452;28;20046;-83
2022/12/09 07:25:26;;;;;;;78.93;45.15;;;;;;;1.48;100.00;66937.50;5002853;28;20096;-84
2022/12/09 07:27:51;;;;;;;80.57;42.03;;;;;;;1.49;100.00;66946.50;4987095;28;20038;-83
2022/12/09 07:30:16;;;;;;;80.85;45.72;;;;;;;1.49;100.00;66943.88;5002898;28;20751;-83
2022/12/09 07:32:42;;;;;;;81.88;45.63;;;;;;;1.52;100.00;66947.81;4994176;28;20255;-83
2022/12/09 07:35:07;;;;;;;82.95;47.35;;;;;;;;;;4996643;28;20042;-82
2022/12/09 07:37:32;;;;;;;81.32;44.67;;;;;;;;;;4986865;28;20038;-82
2022/12/09 07:39:58;;;;;;;78.95;44.25;;;;;;;1.47;100.00;66946.88;4993934;28;20132;-83
2022/12/09 07:42:23;;;;;;;89.50;48.83;;;;;;;1.49;100.00;66944.44;5004838;28;20169;-82
2022/12/09 07:44:48;;;;;;;89.90;46.53;;;;;;;;;;5003605;28;20075;-82
2022/12/09 07:47:14;;;;;;;89.65;47.75;;;;;;;1.47;100.00;66941.66;5006112;28;20038;-83
2022/12/09 07:49:39;;;;;;;92.63;47.17;;;;;;;1.46;100.00;66943.13;5008966;28;20045;-82
2022/12/09 07:52:04;;;;;;;96.10;52.15;;;;;;;1.50;100.00;66945.56;5007785;28;20057;-83
2022/12/09 07:54:30;;;;;;;96.88;47.63;;;;;;;;;;5010077;28;20034;-83
2022/12/09 07:56:55;;;;;;;97.57;49.88;;;;;;;1.49;100.00;66943.88;5016508;28;20049;-83
2022/12/09 07:59:20;;;;;;;90.70;44.83;;;;;;;;;;5010314;28;20042;-83
2022/12/09 08:01:46;;;;;;;103.10;54.50;;;;;;;1.51;100.00;66946.69;5003180;28;20109;-82
2022/12/09 08:04:11;;;;;;;98.50;55.00;;;;;;;1.52;100.00;66947.81;5018332;28;20046;-83
2022/12/09 08:06:37;;;;;;;103.85;53.63;;;;;;;1.55;100.00;66950.63;5009621;28;20124;-83
2022/12/09 08:09:03;;;;;;;100.75;52.58;;;;;;;;;;5010489;28;20105;-82
2022/12/09 08:11:30;;;;;;;101.15;50.97;;;;;;;1.55;100.00;66950.63;5015560;28;20416;-82
2022/12/09 08:13:57;;;;;;;98.95;50.00;;;;;;;1.56;100.00;66947.09;5013306;28;20057;-83
2022/12/09 08:16:24;;;;;;;103.68;53.60;;;;;;;1.53;100.00;66951.56;5008462;28;20049;-82
2022/12/09 08:18:50;;;;;;;98.88;51.80;;;;;;;1.54;100.00;66950.06;5009508;28;20065;-83
2022/12/09 08:21:17;;;;;;;99.60;52.92;;;;;;;;;;5019042;28;20037;-83
2022/12/09 08:23:43;;;;;;;100.28;50.63;;;;;;;;;;5030353;28;20045;-83
2022/12/09 08:26:11;;;;;;;96.82;47.78;;;;;;;1.60;100.00;66955.72;5031187;28;20559;-83
2022/12/09 08:28:36;;;;;;;94.88;51.70;;;;;;;1.55;100.00;66951.22;5010517;28;20104;-82
2022/12/09 08:31:11;;;;;;;105.85;57.97;;;;;;;1.57;100.00;66953.44;5017605;28;20054;-83
2022/12/09 08:33:36;;;;;;;96.28;51.40;;;;;;;1.56;100.00;66947.09;5010054;28;20493;-82
2022/12/09 08:36:02;;;;;;;99.93;49.67;;;;;;;;;;5011735;28;20073;-83
2022/12/09 08:38:28;;;;;;;86.97;45.97;;;;;;;1.62;100.00;66950.66;5007782;28;20030;-82
2022/12/09 08:40:53;;;;;;;89.40;47.45;;;;;;;;;;5009715;28;20034;-83
2022/12/09 08:43:18;;;;;;;95.18;50.17;;;;;;;;;;5012053;28;20038;-83
2022/12/09 08:45:43;;;;;;;92.97;48.80;;;;;;;;;;5007052;28;20046;-83
2022/12/09 08:48:09;;;;;;;88.60;45.60;;;;;;;;;;5018794;28;20038;-83
2022/12/09 08:50:34;;;;;;;80.50;42.83;;;;;;;1.55;100.00;66945.38;5015319;28;20061;-83
2022/12/09 08:53:00;;;;;;;85.68;45.42;;;;;;;1.57;100.00;66952.88;5020402;28;20030;-83
2022/12/09 08:55:25;;;;;;;81.30;45.65;;;;;;;;;;5009378;28;20036;-84
2022/12/09 08:57:51;;;;;;;83.22;44.30;;;;;;;1.57;100.00;66947.66;5015776;28;20053;-83
2022/12/09 09:00:17;;;;;;;92.82;50.60;;;;;;;1.60;100.00;66955.72;5024825;28;20065;-83
2022/12/09 09:02:42;;;;;;;71.57;35.92;;;;;;;;;;5010503;28;20050;-84
2022/12/09 09:05:08;;;;;;;78.10;40.90;;;;;;;1.62;100.00;66957.97;5010689;28;20042;-84
2022/12/09 09:07:33;;;;;;;71.32;36.95;;;;;;;1.62;100.00;66957.97;5012227;28;20042;-82
2022/12/09 09:09:59;;;;;;;80.38;36.60;;;;;;;;;;4993744;28;20415;-83
2022/12/09 09:12:25;;;;;;;80.18;42.40;;;;;;;;;;4993418;28;20416;-83
2022/12/09 09:14:51;;;;;;;74.55;36.85;;;;;;;;;;5012007;28;20045;-83
2022/12/09 09:17:17;;;;;;;75.78;39.13;;;;;;;1.64;100.00;66960.78;5028637;28;20045;-83
2022/12/09 09:19:42;;;;;;;73.45;38.83;;;;;;;1.65;100.00;66961.34;5035294;28;20616;-83
2022/12/09 09:22:07;;;;;;;74.43;39.95;;;;;;;;;;5030528;28;20110;-83
2022/12/09 09:24:33;;;;;;;72.07;39.00;;;;;;;;;;5007379;28;20041;-83
2022/12/09 09:26:58;;;;;;;73.45;41.20;;;;;;;1.63;100.00;66959.66;5009058;28;20046;-83
2022/12/09 09:29:23;;;;;;;70.13;35.88;;;;;;;;;;5011086;28;20038;-83
2022/12/09 09:31:52;;;;;;;63.67;30.80;;;;;;;1.66;100.00;66957.22;5008277;28;20052;-82
2022/12/09 09:34:19;;;;;;;71.72;40.78;;;;;;;1.70;100.00;66967.53;5004838;28;20033;-83
2022/12/09 09:36:45;;;;;;;61.20;31.95;;;;;;;;;;5008788;28;20046;-83
2022/12/09 09:39:10;;;;;;;65.45;33.70;;;;;;;;;;5007962;28;20619;-83
2022/12/09 09:42:02;;;;;;;72.53;35.03;;;;;;;1.73;100.00;66973.53;5008513;28;20096;-83
2022/12/09 09:44:34;;;;;;;65.60;36.47;;;;;;;1.75;100.00;66972.59;5024153;28;20048;-82
2022/12/09 09:47:02;;;;;;;66.32;36.85;;;;;;;1.73;100.00;66962.47;5025838;28;20041;-83
2022/12/09 09:49:42;;;;;;;68.13;38.35;;;;;;;1.78;100.00;66971.31;5027905;28;20053;-82
2022/12/09 09:52:15;;;;;;;67.18;36.42;;;;;;;1.72;100.00;66969.22;4989746;28;20045;-82
2022/12/09 09:54:40;;;;;;;67.38;37.42;;;;;;;1.75;100.00;66973.16;5025056;28;20060;-82
2022/12/09 09:57:15;;;;;;;62.40;37.15;;;;;;;1.75;100.00;66973.16;5027030;28;20046;-83
2022/12/09 09:59:48;;;;;;;69.35;36.85;;;;;;;;;;5028290;28;20025;-83
2022/12/09 10:02:13;;;;;;;68.32;36.15;;;;;;;;;;5029246;28;20089;-83
2022/12/09 10:04:53;;;;;;;62.88;31.23;;;;;;;1.77;100.00;66970.16;5027317;28;20048;-82
2022/12/09 10:07:24;;;;;;;63.28;36.45;;;;;;;;;;5004826;28;20135;-83
2022/12/09 10:09:59;;;;;;;64.93;31.63;;;;;;;;;;4992455;28;20061;-82
2022/12/09 10:12:36;;;;;;;57.50;31.85;;;;;;;1.78;100.00;66975.97;5022000;28;20098;-83
2022/12/09 10:15:17;;;;;;;61.97;33.17;;;;;;;1.73;100.00;66970.34;5028115;28;20536;-83
2022/12/09 10:17:50;;;;;;;65.63;36.42;;;;;;;;;;5012142;28;20049;-83
2022/12/09 10:20:25;;;;;;;65.90;38.78;;;;;;;1.70;100.00;66967.53;5024013;28;20033;-84
2022/12/09 10:23:03;;;;;;;69.53;35.85;;;;;;;;;;5027818;28;20128;-82
2022/12/09 10:25:32;;;;;;;66.22;36.10;;;;;;;1.75;100.00;66972.59;5028485;28;20041;-83
2022/12/09 10:28:24;;;;;;;63.67;30.55;;;;;;;1.72;100.00;66972.41;5027913;28;20045;-83
2022/12/09 10:30:50;;;;;;;60.78;35.17;;;;;;;;;;5029224;28;20049;-83
2022/12/09 10:33:19;;;;;;;64.30;36.08;;;;;;;1.67;100.00;66964.16;5029421;28;20041;-83
2022/12/09 10:35:45;;;;;;;;;;;;;;;1.69;100.00;66966.41;5022402;28;20519;-82
2022/12/09 10:38:16;;;;;;;58.55;32.65;;;;;;;1.62;100.00;66953.28;5029810;28;19971;-83
2022/12/09 10:40:44;;;;;;;56.33;32.13;;;;;;;;;;5030068;28;20045;-83
2022/12/09 10:43:35;;;;;;;60.08;33.70;;;;;;;1.66;100.00;66962.47;5029845;28;20497;-83
2022/12/09 10:46:09;;;;;;;64.68;33.53;;;;;;;1.67;100.00;66966.19;5020407;28;20054;-83
2022/12/09 10:48:36;;;;;;;62.53;36.05;;;;;;;;;;5013047;28;20153;-82
2022/12/09 10:51:29;;;;;;;57.72;32.97;;;;;;;1.69;100.00;66971.09;5022815;28;20045;-82
2022/12/09 10:54:18;;;;;;;57.47;33.55;;;;;;;1.68;100.00;66960.03;5015493;28;20390;-82
2022/12/09 10:57:01;;;;;;;52.53;29.13;;;;;;;;;;5024631;28;20041;-83
2022/12/09 10:59:28;;;;;;;58.33;31.98;;;;;;;1.67;100.00;66958.34;5012476;28;20030;-83
2022/12/09 11:02:09;;;;;;;58.33;33.22;;;;;;;;;;5022598;28;20044;-83
2022/12/09 11:04:37;;;;;;;55.60;26.77;;;;;;;1.68;100.00;66956.84;5012428;28;20037;-83
2022/12/09 11:07:11;;;;;;;60.00;37.78;;;;;;;1.75;100.00;66977.84;5025669;28;20052;-82
2022/12/09 11:09:44;;;;;;;59.90;28.98;;;;;;;;;;5016889;28;20132;-81
2022/12/09 11:12:28;;;;;;;55.67;29.92;;;;;;;;;;5009719;28;20041;-81
2022/12/09 11:14:56;;;;;;;53.65;30.02;;;;;;;1.73;100.00;66970.91;5028776;28;20627;-81
2022/12/09 11:17:31;;;;;;;51.25;28.13;;;;;;;1.73;100.00;66972.97;5024316;28;20061;-81
2022/12/09 11:20:19;;;;;;;50.63;29.88;;;;;;;1.78;100.00;66970.72;5026300;28;20037;-81
2022/12/09 11:22:56;;;;;;;45.80;27.00;;;;;;;;;;5027622;28;20091;-86
2022/12/09 11:25:28;;;;;;;41.28;20.95;;;;;;;1.67;100.00;66958.34;5022897;28;20261;-84
2022/12/09 11:28:03;;;;;;;41.47;18.83;;;;;;;1.67;100.00;66964.16;5026398;28;20038;-84
2022/12/09 11:30:47;;;;;;;38.22;24.20;;;;;;;1.69;100.00;66961.16;5027173;28;20094;-81
2022/12/09 11:33:13;;;;;;;34.50;20.00;;;;;;;1.70;100.00;66967.53;5007376;28;20326;-81
2022/12/09 11:35:44;;;;;;;45.67;27.88;;;;;;;1.69;100.00;66965.84;5027596;28;20084;-82
2022/12/09 11:38:37;;;;;;;41.42;24.30;;;;;;;1.67;100.00;66966.19;5028000;28;20053;-83
2022/12/09 11:41:02;;;;;;;48.90;26.80;;;;;;;1.74;100.00;66977.28;5024195;28;20092;-81
2022/12/09 11:43:50;;;;;;;48.05;29.15;;;;;;;1.78;100.00;66970.72;5027079;28;20512;-83
2022/12/09 11:46:21;;;;;;;46.17;28.23;;;;;;;;;;5027547;28;20045;-82
2022/12/09 11:48:52;;;;;;;42.20;26.85;;;;;;;1.75;100.00;66972.59;5026893;28;20339;-82
2022/12/09 11:51:38;;;;;;;45.95;26.63;;;;;;;1.76;100.00;66973.72;5030239;28;20065;-81
2022/12/09 11:54:29;;;;;;;40.70;26.80;;;;;;;1.74;100.00;66966.22;5012619;28;20065;-81
2022/12/09 11:56:57;;;;;;;38.38;23.27;;;;;;;1.72;100.00;66969.22;5012642;28;20449;-82
2022/12/09 11:59:24;;;;;;;40.30;25.07;;;;;;;;;;5027835;28;20509;-82
2022/12/09 12:02:17;;;;;;;36.13;23.02;;;;;;;1.67;100.00;66964.16;5005650;28;20060;-82
2022/12/09 12:04:55;;;;;;;37.13;25.38;;;;;;;;;;5032447;28;20041;-82
2022/12/09 12:07:29;;;;;;;35.60;21.67;;;;;;;1.69;100.00;66966.41;5033364;28;20049;-82
2022/12/09 12:09:55;;;;;;;38.88;24.85;;;;;;;;;;5012794;28;20045;-82
2022/12/09 12:12:24;;;;;;;35.60;21.48;;;;;;;;;;5011624;28;20064;-82
2022/12/09 12:14:49;;;;;;;44.77;27.40;;;;;;;;;;5025900;28;20042;-81
2022/12/09 12:17:37;;;;;;;41.67;24.92;;;;;;;1.66;100.00;66957.22;5024373;28;20845;-81